createdAt,value
2019-03-31T00:00:01.984Z,7.7
2019-03-31T00:05:01.482Z,7.7
2019-03-31T00:10:01.620Z,7.6
2019-03-31T00:15:01.620Z,7.6
2019-03-31T00:20:01.298Z,7.7
2019-03-31T00:25:02.302Z,7.7
2019-03-31T00:30:02.066Z,7.7
2019-03-31T00:35:01.574Z,7.8
2019-03-31T00:40:02.285Z,7.8
2019-03-31T00:45:01.650Z,7.9
2019-03-31T00:50:01.601Z,7.9
2019-03-31T00:55:01.776Z,8
2019-03-31T01:00:02.324Z,8.1
2019-03-31T01:05:02.289Z,8.1
2019-03-31T01:10:01.590Z,8.1
2019-03-31T01:15:01.763Z,8.1
2019-03-31T01:20:01.520Z,8.1
2019-03-31T01:25:01.311Z,8.1
2019-03-31T01:30:01.312Z,8.1
2019-03-31T01:35:01.612Z,8.2
2019-03-31T01:40:01.468Z,8.1
2019-03-31T01:45:01.769Z,8.1
2019-03-31T01:50:01.948Z,8
2019-03-31T01:55:01.777Z,8
2019-03-31T02:00:01.306Z,7.9
2019-03-31T02:05:01.825Z,7.9
2019-03-31T02:10:01.903Z,7.9
2019-03-31T02:15:01.963Z,7.9
2019-03-31T02:20:02.182Z,7.9
2019-03-31T02:25:01.171Z,7.9
2019-03-31T02:30:01.881Z,7.9
2019-03-31T02:35:01.953Z,7.9
2019-03-31T02:40:02.165Z,8
2019-03-31T02:45:01.287Z,8
2019-03-31T02:50:01.508Z,8
2019-03-31T02:55:01.493Z,8
2019-03-31T03:00:02.307Z,8
2019-03-31T03:05:17.265Z,8
2019-03-31T03:10:01.404Z,8.1
2019-03-31T03:15:02.396Z,8.1
2019-03-31T03:20:01.839Z,8.1
2019-03-31T03:25:01.335Z,8.2
2019-03-31T03:30:02.047Z,8.2
2019-03-31T03:35:01.508Z,8.3
2019-03-31T03:40:01.833Z,8.3
2019-03-31T03:45:02.127Z,8.3
2019-03-31T03:50:01.778Z,8.2
2019-03-31T03:55:01.842Z,8.1
2019-03-31T04:00:01.772Z,8
2019-03-31T04:05:01.833Z,7.8
2019-03-31T04:10:01.837Z,7.7
2019-03-31T04:15:01.208Z,7.6
2019-03-31T04:20:01.640Z,7.4
2019-03-31T04:25:02.166Z,7.3
2019-03-31T04:30:02.144Z,7.2
2019-03-31T04:35:01.673Z,7.1
2019-03-31T04:40:01.863Z,7
2019-03-31T04:45:01.686Z,6.9
2019-03-31T04:50:01.278Z,6.9
2019-03-31T04:55:01.656Z,6.8
2019-03-31T05:00:01.523Z,6.8
2019-03-31T05:05:01.426Z,6.8
2019-03-31T05:10:02.173Z,6.7
2019-03-31T05:15:01.478Z,6.7
2019-03-31T05:20:01.361Z,6.7
2019-03-31T05:25:01.515Z,6.6
2019-03-31T05:30:01.644Z,6.6
2019-03-31T05:35:01.981Z,6.6
2019-03-31T05:40:01.236Z,6.6
2019-03-31T05:45:02.267Z,6.7
2019-03-31T05:50:01.269Z,6.8
2019-03-31T05:55:01.935Z,7
2019-03-31T06:00:01.346Z,7.3
2019-03-31T06:05:01.912Z,7.4
2019-03-31T06:10:01.379Z,7.8
2019-03-31T06:15:01.638Z,7.9
2019-03-31T06:20:02.122Z,8
2019-03-31T06:25:02.134Z,8
2019-03-31T06:30:01.511Z,8.2
2019-03-31T06:35:02.102Z,8.3
2019-03-31T06:40:01.919Z,8.3
2019-03-31T06:45:02.106Z,8.3
2019-03-31T06:50:01.386Z,8.3
2019-03-31T06:55:02.093Z,8.4
2019-03-31T07:00:01.310Z,8.5
2019-03-31T07:05:02.086Z,8.4
2019-03-31T07:10:01.468Z,8.4
2019-03-31T07:15:02.077Z,8.2
2019-03-31T07:20:01.500Z,8.1
2019-03-31T07:25:01.483Z,8.1
2019-03-31T07:30:01.222Z,8.2
2019-03-31T07:35:01.561Z,8.3
2019-03-31T07:40:02.373Z,8.4
2019-03-31T07:45:01.430Z,8.7
2019-03-31T07:50:01.973Z,8.9
2019-03-31T07:55:01.546Z,9.2
2019-03-31T08:00:01.636Z,9.8
2019-03-31T08:05:01.554Z,9.9
2019-03-31T08:10:02.138Z,9.9
2019-03-31T08:15:01.273Z,9.7
2019-03-31T08:20:02.042Z,9.5
2019-03-31T08:25:01.794Z,9.6
2019-03-31T08:30:01.778Z,9.9
2019-03-31T08:35:01.605Z,10.6
2019-03-31T08:40:01.672Z,10.8
2019-03-31T08:45:02.036Z,10.8
2019-03-31T08:50:02.676Z,11.5
2019-03-31T08:55:01.184Z,11.6
2019-03-31T09:00:01.692Z,11.7
2019-03-31T09:05:01.575Z,11.5
2019-03-31T09:10:01.577Z,11.5
2019-03-31T09:15:02.113Z,11.8
2019-03-31T09:20:01.755Z,12.1
2019-03-31T09:25:01.687Z,12.2
2019-03-31T09:30:02.090Z,12.2
2019-03-31T09:35:01.504Z,12.3
2019-03-31T09:40:02.380Z,12.9
2019-03-31T09:45:01.460Z,13
2019-03-31T09:50:01.603Z,12.9
2019-03-31T09:55:01.230Z,13.2
2019-03-31T10:00:02.265Z,13.4
2019-03-31T10:05:01.511Z,13.5
2019-03-31T10:10:01.559Z,13.5
2019-03-31T10:15:01.321Z,13.8
2019-03-31T10:20:02.404Z,13.7
2019-03-31T10:25:01.918Z,13.4
2019-03-31T10:30:02.179Z,13.5
2019-03-31T10:35:01.599Z,13.3
2019-03-31T10:40:01.784Z,13.4
2019-03-31T10:45:01.656Z,13.8
2019-03-31T10:50:01.819Z,13.7
2019-03-31T10:55:02.084Z,14
2019-03-31T11:00:01.783Z,13.9
2019-03-31T11:05:02.073Z,14.1
2019-03-31T11:10:01.464Z,14.1
2019-03-31T11:15:02.034Z,14.2
2019-03-31T11:20:01.659Z,14.3
2019-03-31T11:25:01.582Z,14.2
2019-03-31T11:30:01.894Z,14.3
2019-03-31T11:35:01.740Z,14.5
2019-03-31T11:40:01.906Z,14.4
2019-03-31T11:45:02.266Z,14.6
2019-03-31T11:50:01.336Z,14.5
2019-03-31T11:55:01.509Z,14.5
2019-03-31T12:00:01.718Z,14.7
2019-03-31T12:05:02.169Z,14.9
2019-03-31T12:10:01.796Z,15.1
2019-03-31T12:15:01.634Z,15.2
2019-03-31T12:20:01.959Z,15.3
2019-03-31T12:25:01.608Z,15.3
2019-03-31T12:30:01.809Z,15.1
2019-03-31T12:35:01.786Z,14.9
2019-03-31T12:40:01.940Z,15.1
2019-03-31T12:45:01.770Z,15.3
2019-03-31T12:50:01.702Z,15.1
2019-03-31T12:55:01.644Z,15.1
2019-03-31T13:00:01.535Z,15.2
2019-03-31T13:05:01.670Z,15.4
2019-03-31T13:10:02.120Z,15.4
2019-03-31T13:15:01.204Z,15.3
2019-03-31T13:20:02.125Z,15.6
2019-03-31T13:25:02.443Z,15.2
2019-03-31T13:30:02.106Z,15.1
2019-03-31T13:35:01.786Z,15.2
2019-03-31T13:40:01.532Z,14.9
2019-03-31T13:45:01.868Z,14.6
2019-03-31T13:50:01.817Z,14.9
2019-03-31T13:55:01.814Z,15
2019-03-31T14:00:01.641Z,14.9
2019-03-31T14:05:01.718Z,14.7
2019-03-31T14:10:02.150Z,14.6
2019-03-31T14:15:01.893Z,14.6
2019-03-31T14:20:02.248Z,14.7
2019-03-31T14:25:01.383Z,14.8
2019-03-31T14:30:01.996Z,14.7
2019-03-31T14:35:02.422Z,14.9
2019-03-31T14:40:01.995Z,14.7
2019-03-31T14:45:02.118Z,14.6
2019-03-31T14:50:01.735Z,14.4
2019-03-31T14:55:01.996Z,14.6
2019-03-31T15:00:13.786Z,14.2
2019-03-31T15:05:01.422Z,14.1
2019-03-31T15:10:02.308Z,14.2
2019-03-31T15:15:01.220Z,14.1
2019-03-31T15:20:02.022Z,14.1
2019-03-31T15:25:02.046Z,13.8
2019-03-31T15:30:01.906Z,13.6
2019-03-31T15:35:01.598Z,13.9
2019-03-31T15:40:01.312Z,13.7
2019-03-31T15:45:02.166Z,13.8
2019-03-31T15:50:02.214Z,13.7
2019-03-31T15:55:01.167Z,13.5
2019-03-31T16:00:01.475Z,13.4
2019-03-31T16:05:01.705Z,13.4
2019-03-31T16:10:02.153Z,13.3
2019-03-31T16:15:01.274Z,13.1
2019-03-31T16:20:01.900Z,12.8
2019-03-31T16:25:01.511Z,13
2019-03-31T16:30:01.978Z,12.5
2019-03-31T16:35:01.391Z,12.4
2019-03-31T16:40:01.597Z,12.4
2019-03-31T16:45:01.913Z,12.2
2019-03-31T16:50:02.383Z,12.3
2019-03-31T16:55:02.141Z,12.2
2019-03-31T17:00:01.575Z,11.5
2019-03-31T17:05:01.623Z,11.2
2019-03-31T17:10:01.615Z,11.1
2019-03-31T17:15:01.503Z,10.7
2019-03-31T17:20:01.599Z,10.3
2019-03-31T17:25:01.870Z,10.1
2019-03-31T17:30:02.005Z,9.7
2019-03-31T17:35:02.014Z,9.3
2019-03-31T17:40:06.179Z,9.1
2019-03-31T17:45:01.252Z,8.9
2019-03-31T17:50:02.326Z,8.8
2019-03-31T17:55:01.494Z,8.6
2019-03-31T18:00:02.346Z,8.4
2019-03-31T18:05:01.984Z,8.3
2019-03-31T18:10:01.378Z,8.1
2019-03-31T18:15:01.417Z,8
2019-03-31T18:20:02.044Z,7.7
2019-03-31T18:25:01.279Z,7.7
2019-03-31T18:30:01.910Z,7.6
2019-03-31T18:35:01.666Z,7.5
2019-03-31T18:40:02.019Z,7.4
2019-03-31T18:45:01.675Z,7.3
2019-03-31T18:50:01.902Z,7.1
2019-03-31T18:55:02.059Z,7
2019-03-31T19:00:01.754Z,6.9
2019-03-31T19:05:02.072Z,6.8
2019-03-31T19:10:01.936Z,6.6
2019-03-31T19:15:01.569Z,6.5
2019-03-31T19:20:01.808Z,6.3
2019-03-31T19:25:02.280Z,6.3
2019-03-31T19:30:02.057Z,6.2
2019-03-31T19:35:01.609Z,6
2019-03-31T19:40:02.327Z,5.9
2019-03-31T19:45:01.282Z,5.7
2019-03-31T19:50:01.953Z,5.5
2019-03-31T19:55:02.023Z,5.4
2019-03-31T20:00:01.709Z,5.3
2019-03-31T20:05:02.302Z,5.2
2019-03-31T20:10:01.709Z,5
2019-03-31T20:15:02.267Z,4.9
2019-03-31T20:20:02.170Z,4.8
2019-03-31T20:25:01.487Z,4.6
2019-03-31T20:30:01.402Z,4.5
2019-03-31T20:35:02.032Z,4.3
2019-03-31T20:40:01.998Z,4.2
2019-03-31T20:45:02.153Z,4.1
2019-03-31T20:50:01.409Z,4
2019-03-31T20:55:15.292Z,3.9
2019-03-31T21:00:01.860Z,3.9
2019-03-31T21:05:01.943Z,3.8
2019-03-31T21:10:01.580Z,3.7
2019-03-31T21:15:01.618Z,3.7
2019-03-31T21:20:01.440Z,3.6
2019-03-31T21:25:02.335Z,3.5
2019-03-31T21:30:02.090Z,3.3
2019-03-31T21:35:01.719Z,3.2
2019-03-31T21:40:01.746Z,3.2
2019-03-31T21:45:01.891Z,3.2
2019-03-31T21:50:01.816Z,3.1
2019-03-31T21:55:01.677Z,3
2019-03-31T22:00:01.789Z,3
2019-03-31T22:05:01.591Z,3
2019-03-31T22:10:01.570Z,2.9
2019-03-31T22:15:02.653Z,3
2019-03-31T22:20:01.886Z,3
2019-03-31T22:25:01.256Z,2.9
2019-03-31T22:30:01.542Z,3
2019-03-31T22:35:02.116Z,3
2019-03-31T22:40:01.454Z,2.9
2019-03-31T22:45:02.123Z,3
2019-03-31T22:50:01.251Z,3
2019-03-31T22:55:01.642Z,2.9
2019-03-31T23:00:02.027Z,2.9
2019-03-31T23:05:01.311Z,2.9
2019-03-31T23:10:01.621Z,2.8
2019-03-31T23:15:01.530Z,2.8
2019-03-31T23:20:02.100Z,2.8
2019-03-31T23:25:01.298Z,2.8
2019-03-31T23:30:01.958Z,2.7
2019-03-31T23:35:01.854Z,2.7
2019-03-31T23:40:01.198Z,2.7
2019-03-31T23:45:01.611Z,2.6
2019-03-31T23:50:01.684Z,2.5
2019-03-31T23:55:01.928Z,2.5
